Time;durP1;ratioP1;P1;durP2;ratioP2;P2;SDS_P1;SDS_P2;PMS_P1;PMS_P2;Temp;Humidity;BMP_temperature;BMP_pressure;BME280_temperature;BME280_humidity;BME280_pressure;Samples;Min_cycle;Max_cycle;Signal;HPM_P1;HPM_P2
2021/07/30 00:00:17;;;;;;;14.77;7.30;;;;;;;;;;4345319;33;20203;-77
2021/07/30 00:05:38;;;;;;;13.45;7.35;;;;;;;;;;4372611;32;20530;-77
2021/07/30 00:08:03;;;;;;;14.70;7.90;;;;;;;;;;4345697;32;20163;-77
2021/07/30 00:10:29;;;;;;;14.48;7.68;;;;;;;;;;4345028;32;20171;-77
2021/07/30 00:13:00;;;;;;;14.45;7.05;;;;;;;;;;4331371;32;20224;-77
2021/07/30 00:15:25;;;;;;;12.57;7.10;;;;;;;;;;4330711;33;20203;-77
2021/07/30 00:17:54;;;;;;;10.13;6.90;;;;;;;;;;4318257;33;20198;-77
2021/07/30 00:20:20;;;;;;;13.95;7.70;;;;;;;;;;4331097;33;20163;-77
2021/07/30 00:22:48;;;;;;;11.70;6.97;;;;;;;;;;4331154;33;20296;-77
2021/07/30 00:25:14;;;;;;;11.02;6.78;;;;;;;;;;4330291;33;20168;-77
2021/07/30 00:27:40;;;;;;;15.23;7.72;;;;;;;;;;4329836;33;20190;-78
2021/07/30 00:30:05;;;;;;;18.25;7.37;;;;;;;;;;4387002;32;20362;-77
2021/07/30 00:32:34;;;;;;;13.20;6.80;;;;;;;;;;4330268;33;20265;-77
2021/07/30 00:34:59;;;;;;;14.90;7.35;;;;;;;;;;4330502;33;20182;-77
2021/07/30 00:37:24;;;;;;;13.70;6.43;;;;;;;;;;4344278;33;20163;-77
2021/07/30 00:39:50;;;;;;;9.43;6.03;;;;;;;;;;4348127;32;20210;-77
2021/07/30 00:42:15;;;;;;;15.65;6.78;;;;;;;;;;4394071;32;20282;-77
2021/07/30 00:44:41;;;;;;;16.37;7.20;;;;;;;;;;4394259;32;20216;-77
2021/07/30 00:47:06;;;;;;;13.85;6.62;;;;;;;;;;4393618;32;20223;-77
2021/07/30 00:49:31;;;;;;;11.00;6.35;;;;;;;;;;4394129;32;20175;-77
2021/07/30 00:51:57;;;;;;;13.20;5.90;;;;;;;;;;4420421;32;20142;-77
2021/07/30 00:54:24;;;;;;;15.25;6.22;;;;;;;;;;4406966;32;20213;-77
2021/07/30 00:56:53;;;;;;;13.38;6.82;;;;;;;;;;4406399;32;20174;-76
2021/07/30 00:59:18;;;;;;;11.38;6.32;;;;;;;;;;4406367;32;20161;-77
2021/07/30 01:01:43;;;;;;;10.80;6.53;;;;;;;;;;4406905;32;20161;-77
2021/07/30 01:04:09;;;;;;;10.90;6.40;;;;;;;;;;4406782;32;20165;-77
2021/07/30 01:06:37;;;;;;;9.35;6.00;;;;;;;;;;4420844;32;20150;-76
2021/07/30 01:09:07;;;;;;;15.90;6.75;;;;;;;;;;4406674;32;20157;-76
2021/07/30 01:11:33;;;;;;;12.05;6.12;;;;;;;;;;4421137;32;20134;-78
2021/07/30 01:13:58;;;;;;;13.23;6.80;;;;;;;;;;4407451;32;20651;-79
2021/07/30 01:16:36;;;;;;;13.68;6.50;;;;;;;;;;4406626;32;20165;-78
2021/07/30 01:19:22;;;;;;;12.60;6.03;;;;;;;;;;4407291;32;20591;-79
2021/07/30 01:21:55;;;;;;;14.38;6.07;;;;;;;;;;4406819;32;20656;-78
2021/07/30 01:24:26;;;;;;;11.48;5.95;;;;;;;;;;4406997;32;20189;-80
2021/07/30 01:26:51;;;;;;;15.10;6.43;;;;;;;;;;4420737;32;20156;-80
2021/07/30 01:29:24;;;;;;;16.20;6.45;;;;;;;;;;4420453;32;20149;-79
2021/07/30 01:31:53;;;;;;;10.00;5.50;;;;;;;;;;4421445;32;20199;-80
2021/07/30 01:34:18;;;;;;;10.45;5.70;;;;;;;;;;4406052;32;20225;-79
2021/07/30 01:36:44;;;;;;;12.32;5.60;;;;;;;;;;4406538;32;20166;-79
2021/07/30 01:39:09;;;;;;;16.35;5.78;;;;;;;;;;4400416;32;20478;-79
2021/07/30 01:41:34;;;;;;;11.80;5.47;;;;;;;;;;4356618;32;20170;-78
2021/07/30 01:44:00;;;;;;;13.48;5.40;;;;;;;;;;4344373;33;20500;-79
2021/07/30 01:46:25;;;;;;;10.73;5.32;;;;;;;;;;4345114;33;20198;-78
2021/07/30 01:48:50;;;;;;;9.90;5.40;;;;;;;;;;4344693;33;20193;-78
2021/07/30 01:51:16;;;;;;;15.27;5.40;;;;;;;;;;4344589;33;20207;-78
2021/07/30 01:53:41;;;;;;;12.35;5.95;;;;;;;;;;4344656;33;20163;-78
2021/07/30 01:56:07;;;;;;;12.68;5.60;;;;;;;;;;4344305;33;20167;-78
2021/07/30 01:58:35;;;;;;;13.02;5.70;;;;;;;;;;4357961;32;20199;-78
2021/07/30 02:01:01;;;;;;;11.52;4.82;;;;;;;;;;4344496;33;20167;-78
2021/07/30 02:03:31;;;;;;;12.13;5.03;;;;;;;;;;4344194;33;20206;-79
2021/07/30 02:05:59;;;;;;;9.60;4.97;;;;;;;;;;4344613;33;20248;-79
2021/07/30 02:08:24;;;;;;;13.27;5.20;;;;;;;;;;4346568;32;20198;-79
2021/07/30 02:10:49;;;;;;;12.27;5.32;;;;;;;;;;4339326;32;20604;-79
2021/07/30 02:16:01;;;;;;;14.55;5.57;;;;;;;;;;4334846;32;20153;-78
2021/07/30 02:18:26;;;;;;;15.63;5.78;;;;;;;;;;4331845;33;20252;-78
2021/07/30 02:20:52;;;;;;;9.90;5.20;;;;;;;;;;4332279;33;20187;-78
2021/07/30 02:23:17;;;;;;;13.75;5.65;;;;;;;;;;4332601;33;20159;-78
2021/07/30 02:25:46;;;;;;;15.23;4.97;;;;;;;;;;4332114;32;20506;-78
2021/07/30 02:28:15;;;;;;;13.35;5.60;;;;;;;;;;4332154;33;20593;-78
2021/07/30 02:30:40;;;;;;;12.52;5.80;;;;;;;;;;4331671;33;20198;-78
2021/07/30 02:33:05;;;;;;;13.48;5.70;;;;;;;;;;4332130;33;20202;-78
2021/07/30 02:35:31;;;;;;;13.95;5.90;;;;;;;;;;4346039;33;20234;-78
2021/07/30 02:37:56;;;;;;;11.68;5.87;;;;;;;;;;4331635;33;20210;-78
2021/07/30 02:40:28;;;;;;;15.65;6.35;;;;;;;;;;4340855;33;20172;-78
2021/07/30 02:42:53;;;;;;;18.25;6.75;;;;;;;;;;4346366;32;20220;-78
2021/07/30 02:45:18;;;;;;;12.82;6.60;;;;;;;;;;4346164;33;20588;-78
2021/07/30 02:47:44;;;;;;;14.57;7.00;;;;;;;;;;4346851;33;20606;-78
2021/07/30 02:50:09;;;;;;;14.00;6.90;;;;;;;;;;4346456;33;20497;-78
2021/07/30 02:52:34;;;;;;;19.92;6.75;;;;;;;;;;4346350;33;20629;-78
2021/07/30 02:55:00;;;;;;;15.98;7.68;;;;;;;;;;4346542;33;20160;-78
2021/07/30 02:57:25;;;;;;;18.23;7.43;;;;;;;;;;4346350;33;20218;-78
2021/07/30 02:59:51;;;;;;;18.55;7.53;;;;;;;;;;4346186;33;20208;-78
2021/07/30 03:02:16;;;;;;;18.55;7.47;;;;;;;;;;4359556;33;20203;-78
2021/07/30 03:04:41;;;;;;;16.85;7.95;;;;;;;;;;4346161;33;20163;-78
2021/07/30 03:07:10;;;;;;;16.62;7.32;;;;;;;;;;4346109;32;20175;-78
2021/07/30 03:09:37;;;;;;;17.35;7.78;;;;;;;;;;4360147;33;20132;-78
2021/07/30 03:12:03;;;;;;;12.98;6.95;;;;;;;;;;4359016;33;20206;-78
2021/07/30 03:14:28;;;;;;;15.60;7.40;;;;;;;;;;4346566;33;20170;-78
2021/07/30 03:16:53;;;;;;;14.00;6.93;;;;;;;;;;4345673;32;20160;-78
2021/07/30 03:19:24;;;;;;;15.60;7.03;;;;;;;;;;4345385;32;20536;-78
2021/07/30 03:21:50;;;;;;;16.35;6.80;;;;;;;;;;4346033;33;20269;-78
2021/07/30 03:24:18;;;;;;;16.85;7.57;;;;;;;;;;4346089;33;20166;-78
2021/07/30 03:26:43;;;;;;;15.35;7.85;;;;;;;;;;4345734;32;20212;-78
2021/07/30 03:29:09;;;;;;;18.98;7.75;;;;;;;;;;4345758;32;20183;-78
2021/07/30 03:31:34;;;;;;;13.68;7.30;;;;;;;;;;4345832;33;20171;-78
2021/07/30 03:33:59;;;;;;;19.55;8.23;;;;;;;;;;4359693;32;20199;-78
2021/07/30 03:36:25;;;;;;;15.18;7.43;;;;;;;;;;4346040;32;20348;-77
2021/07/30 03:38:55;;;;;;;16.48;8.35;;;;;;;;;;4345930;33;20180;-77
2021/07/30 03:41:20;;;;;;;17.60;8.02;;;;;;;;;;4345902;33;20186;-77
2021/07/30 03:43:45;;;;;;;14.73;8.10;;;;;;;;;;4345634;33;20210;-77
2021/07/30 03:46:14;;;;;;;19.50;7.87;;;;;;;;;;4345395;33;20479;-77
2021/07/30 03:48:42;;;;;;;18.60;8.32;;;;;;;;;;4345540;33;20200;-77
2021/07/30 03:51:10;;;;;;;17.15;8.27;;;;;;;;;;4346095;33;20181;-77
2021/07/30 03:53:35;;;;;;;13.90;7.57;;;;;;;;;;4345841;33;20250;-77
2021/07/30 03:56:03;;;;;;;14.15;7.12;;;;;;;;;;4345445;32;20156;-77
2021/07/30 03:58:28;;;;;;;20.83;7.82;;;;;;;;;;4345464;33;20178;-77
2021/07/30 04:00:56;;;;;;;16.85;7.43;;;;;;;;;;4345715;33;20158;-77
2021/07/30 04:03:22;;;;;;;15.18;7.43;;;;;;;;;;4345333;32;20599;-77
2021/07/30 04:05:47;;;;;;;17.55;7.55;;;;;;;;;;4345433;33;20167;-78
2021/07/30 04:08:19;;;;;;;16.50;8.05;;;;;;;;;;4345467;33;20178;-77
2021/07/30 04:10:50;;;;;;;16.08;7.70;;;;;;;;;;4345213;32;20644;-79
2021/07/30 04:13:15;;;;;;;11.77;6.62;;;;;;;;;;4345569;33;20173;-77
2021/07/30 04:15:43;;;;;;;16.25;7.40;;;;;;;;;;4345295;32;20155;-78
2021/07/30 04:18:09;;;;;;;18.35;7.30;;;;;;;;;;4344991;33;20194;-78
2021/07/30 04:20:37;;;;;;;16.98;8.18;;;;;;;;;;4345082;33;20589;-78
2021/07/30 04:23:02;;;;;;;16.15;7.15;;;;;;;;;;4345453;32;20159;-78
2021/07/30 04:25:30;;;;;;;16.67;7.03;;;;;;;;;;4345443;32;20178;-76
2021/07/30 04:27:57;;;;;;;12.93;6.82;;;;;;;;;;4345051;32;20178;-78
2021/07/30 04:30:25;;;;;;;11.90;7.00;;;;;;;;;;4344601;33;20204;-78
2021/07/30 04:32:53;;;;;;;13.30;7.12;;;;;;;;;;4344989;32;20560;-78
2021/07/30 04:35:19;;;;;;;21.95;8.25;;;;;;;;;;4345492;32;20238;-77
2021/07/30 04:37:44;;;;;;;17.50;7.35;;;;;;;;;;4344729;33;20162;-77
2021/07/30 04:40:19;;;;;;;13.02;6.57;;;;;;;;;;4344943;33;20679;-76
2021/07/30 04:42:44;;;;;;;18.08;7.25;;;;;;;;;;4345140;32;20658;-76
2021/07/30 04:45:10;;;;;;;16.60;7.50;;;;;;;;;;4345063;32;20227;-77
2021/07/30 04:47:35;;;;;;;16.45;7.85;;;;;;;;;;4344832;33;20631;-76
2021/07/30 04:50:00;;;;;;;16.95;7.57;;;;;;;;;;4345030;32;20238;-78
2021/07/30 04:52:25;;;;;;;16.92;7.30;;;;;;;;;;4345336;33;20187;-78
2021/07/30 04:54:52;;;;;;;16.00;7.62;;;;;;;;;;4358760;33;20127;-78
2021/07/30 04:57:20;;;;;;;22.37;8.10;;;;;;;;;;4344799;32;20553;-78
2021/07/30 04:59:46;;;;;;;15.95;7.82;;;;;;;;;;4345387;32;20261;-77
2021/07/30 05:02:13;;;;;;;18.17;7.82;;;;;;;;;;4345311;32;20185;-77
2021/07/30 05:04:55;;;;;;;12.18;7.35;;;;;;;;;;4330316;32;20200;-78
2021/07/30 05:07:39;;;;;;;18.92;7.65;;;;;;;;;;4353234;33;20139;-77
2021/07/30 05:10:05;;;;;;;13.60;7.72;;;;;;;;;;4345226;33;20590;-77
2021/07/30 05:12:36;;;;;;;15.00;7.62;;;;;;;;;;4345546;33;20159;-77
2021/07/30 05:15:02;;;;;;;17.73;7.68;;;;;;;;;;4345166;33;20167;-77
2021/07/30 05:17:27;;;;;;;17.37;8.25;;;;;;;;;;4344665;33;20193;-77
2021/07/30 05:19:52;;;;;;;16.70;8.57;;;;;;;;;;4344901;32;20189;-77
2021/07/30 05:22:18;;;;;;;22.10;8.93;;;;;;;;;;4345002;32;20216;-77
2021/07/30 05:24:45;;;;;;;15.32;8.57;;;;;;;;;;4344391;32;20167;-77
2021/07/30 05:27:11;;;;;;;17.42;8.25;;;;;;;;;;4344720;33;20234;-77
2021/07/30 05:29:36;;;;;;;17.50;8.45;;;;;;;;;;4344999;32;20494;-77
2021/07/30 05:32:02;;;;;;;24.37;9.02;;;;;;;;;;4344694;33;20205;-77
2021/07/30 05:34:29;;;;;;;15.90;8.77;;;;;;;;;;4345017;32;20155;-77
2021/07/30 05:36:55;;;;;;;19.12;8.55;;;;;;;;;;4343997;33;20234;-77
2021/07/30 05:39:20;;;;;;;14.95;7.43;;;;;;;;;;4343986;32;20205;-78
2021/07/30 05:41:45;;;;;;;18.83;8.23;;;;;;;;;;4346073;33;20314;-77
2021/07/30 05:44:14;;;;;;;20.50;8.10;;;;;;;;;;4346975;33;20491;-77
2021/07/30 05:46:49;;;;;;;13.25;6.87;;;;;;;;;;4346874;32;20584;-77
2021/07/30 05:49:17;;;;;;;15.32;7.28;;;;;;;;;;4347037;33;20147;-78
2021/07/30 05:51:42;;;;;;;13.18;7.40;;;;;;;;;;4346990;32;20163;-76
2021/07/30 05:54:08;;;;;;;13.27;7.30;;;;;;;;;;4346835;33;20623;-77
2021/07/30 05:56:33;;;;;;;14.32;7.65;;;;;;;;;;4346696;32;20178;-77
2021/07/30 05:58:58;;;;;;;15.75;6.70;;;;;;;;;;4346825;32;20177;-77
2021/07/30 06:01:24;;;;;;;16.15;7.47;;;;;;;;;;4346661;32;20507;-78
2021/07/30 06:03:50;;;;;;;15.30;7.28;;;;;;;;;;4346348;33;20178;-77
2021/07/30 06:06:18;;;;;;;15.75;7.10;;;;;;;;;;4346576;33;20253;-77
2021/07/30 06:08:46;;;;;;;19.58;7.18;;;;;;;;;;4347357;32;20175;-77
2021/07/30 06:11:11;;;;;;;17.80;8.05;;;;;;;;;;4347015;33;20226;-76
2021/07/30 06:13:37;;;;;;;17.70;7.25;;;;;;;;;;4346689;32;20514;-76
2021/07/30 06:16:02;;;;;;;18.30;7.47;;;;;;;;;;4346609;32;20155;-78
2021/07/30 06:18:27;;;;;;;10.77;6.35;;;;;;;;;;4346803;33;20214;-77
2021/07/30 06:20:53;;;;;;;16.62;7.55;;;;;;;;;;4346587;32;20578;-77
2021/07/30 06:23:24;;;;;;;13.60;6.85;;;;;;;;;;4346473;33;20229;-76
2021/07/30 06:25:49;;;;;;;14.05;7.40;;;;;;;;;;4346067;32;20182;-76
2021/07/30 06:28:23;;;;;;;13.82;7.00;;;;;;;;;;4346510;33;20492;-77
2021/07/30 06:30:48;;;;;;;17.45;7.37;;;;;;;;;;4345842;33;20154;-76
2021/07/30 06:33:17;;;;;;;15.40;6.75;;;;;;;;;;4346395;32;20206;-78
2021/07/30 06:35:49;;;;;;;16.98;7.05;;;;;;;;;;4346442;32;20156;-77
2021/07/30 06:38:15;;;;;;;13.55;6.60;;;;;;;;;;4346722;32;20223;-77
2021/07/30 06:40:44;;;;;;;16.77;6.87;;;;;;;;;;4346025;32;20295;-76
2021/07/30 06:43:09;;;;;;;13.65;6.82;;;;;;;;;;4360146;32;20124;-76
2021/07/30 06:45:35;;;;;;;17.12;7.07;;;;;;;;;;4346089;32;20198;-76
2021/07/30 06:48:00;;;;;;;15.55;7.00;;;;;;;;;;4345863;32;20182;-78
2021/07/30 06:50:25;;;;;;;19.02;6.60;;;;;;;;;;4345660;33;20586;-76
2021/07/30 06:52:51;;;;;;;15.07;6.40;;;;;;;;;;4345507;32;20159;-77
2021/07/30 06:55:16;;;;;;;9.43;6.37;;;;;;;;;;4345999;32;20221;-76
2021/07/30 06:57:41;;;;;;;15.30;6.70;;;;;;;;;;4346399;33;20147;-77
2021/07/30 07:00:07;;;;;;;13.95;6.53;;;;;;;;;;4346221;33;20182;-78
2021/07/30 07:02:32;;;;;;;12.43;6.43;;;;;;;;;;4345798;33;20162;-78
2021/07/30 07:05:01;;;;;;;12.00;5.28;;;;;;;;;;4346382;33;20151;-77
2021/07/30 07:07:35;;;;;;;9.77;5.78;;;;;;;;;;4346242;33;20250;-76
2021/07/30 07:10:00;;;;;;;12.95;6.35;;;;;;;;;;4362953;32;20146;-76
2021/07/30 07:12:35;;;;;;;11.32;5.93;;;;;;;;;;4352238;32;20225;-77
2021/07/30 07:15:00;;;;;;;14.35;6.43;;;;;;;;;;4345839;32;20162;-76
2021/07/30 07:17:25;;;;;;;12.80;6.03;;;;;;;;;;4345877;32;20212;-77
2021/07/30 07:20:10;;;;;;;;;;;;;;;;;;;;;
2021/07/30 07:22:37;;;;;;;15.05;6.55;;;;;;;;;;4414763;32;20550;-78
2021/07/30 07:25:05;;;;;;;11.82;6.25;;;;;;;;;;4391115;32;20162;-77
2021/07/30 07:27:30;;;;;;;11.50;5.85;;;;;;;;;;4345297;33;20167;-76
2021/07/30 07:29:56;;;;;;;12.23;5.95;;;;;;;;;;4356122;32;20243;-77
2021/07/30 07:32:34;;;;;;;13.25;6.18;;;;;;;;;;4357967;33;20174;-76
2021/07/30 07:34:59;;;;;;;15.50;6.93;;;;;;;;;;4345603;32;20159;-76
2021/07/30 07:37:25;;;;;;;13.48;6.55;;;;;;;;;;4346957;32;20465;-76
2021/07/30 07:40:13;;;;;;;13.80;6.18;;;;;;;;;;4345475;32;20229;-78
2021/07/30 07:42:40;;;;;;;12.48;5.55;;;;;;;;;;4346364;32;20178;-76
2021/07/30 07:45:17;;;;;;;13.55;6.03;;;;;;;;;;4330986;33;20236;-77
2021/07/30 07:47:42;;;;;;;14.38;6.20;;;;;;;;;;4352020;32;20224;-77
2021/07/30 07:50:10;;;;;;;11.18;6.05;;;;;;;;;;4361199;32;20484;-77
2021/07/30 07:52:36;;;;;;;10.85;5.35;;;;;;;;;;4344397;32;20167;-77
2021/07/30 07:55:03;;;;;;;12.55;6.07;;;;;;;;;;4332218;33;20251;-77
2021/07/30 07:57:28;;;;;;;15.10;5.82;;;;;;;;;;4358733;32;20155;-79
2021/07/30 07:59:53;;;;;;;10.35;5.60;;;;;;;;;;4345005;33;20462;-78
2021/07/30 08:02:19;;;;;;;13.77;5.32;;;;;;;;;;4345075;32;20167;-77
2021/07/30 08:04:44;;;;;;;10.52;5.68;;;;;;;;;;4344641;32;20164;-77
2021/07/30 08:07:17;;;;;;;10.48;4.90;;;;;;;;;;4344964;33;20640;-76
2021/07/30 08:09:43;;;;;;;12.05;5.30;;;;;;;;;;4333391;33;20185;-76
2021/07/30 08:12:08;;;;;;;11.48;5.18;;;;;;;;;;4344679;32;20226;-77
2021/07/30 08:14:33;;;;;;;12.25;5.87;;;;;;;;;;4358576;32;20143;-77
2021/07/30 08:17:00;;;;;;;13.23;5.87;;;;;;;;;;4345629;33;20163;-77
2021/07/30 08:19:25;;;;;;;17.48;6.57;;;;;;;;;;4358978;33;20580;-77
2021/07/30 08:21:50;;;;;;;12.68;5.57;;;;;;;;;;4344743;32;20197;-76
2021/07/30 08:24:22;;;;;;;10.93;4.80;;;;;;;;;;4358541;33;20207;-75
2021/07/30 08:27:10;;;;;;;13.90;4.50;;;;;;;;;;4347181;32;20378;-78
2021/07/30 08:29:36;;;;;;;9.75;4.53;;;;;;;;;;4348662;32;20641;-76
2021/07/30 08:32:17;;;;;;;8.82;4.37;;;;;;;;;;4353716;32;20159;-77
2021/07/30 08:34:49;;;;;;;10.45;4.70;;;;;;;;;;4364433;32;20519;-78
2021/07/30 08:37:14;;;;;;;10.68;4.68;;;;;;;;;;4343479;32;20489;-77
2021/07/30 08:39:45;;;;;;;10.90;4.40;;;;;;;;;;4350816;32;20171;-76
2021/07/30 08:42:14;;;;;;;12.95;5.07;;;;;;;;;;4348036;32;20229;-76
2021/07/30 08:44:40;;;;;;;11.60;5.18;;;;;;;;;;4358704;32;20147;-77
2021/07/30 08:47:06;;;;;;;12.52;5.22;;;;;;;;;;4350452;33;20199;-77
2021/07/30 08:49:34;;;;;;;10.75;4.22;;;;;;;;;;4357185;33;20196;-79
2021/07/30 08:52:06;;;;;;;7.70;4.20;;;;;;;;;;4343932;32;20501;-78
2021/07/30 08:54:31;;;;;;;10.73;4.53;;;;;;;;;;4342199;33;20159;-77
2021/07/30 08:56:57;;;;;;;11.52;3.90;;;;;;;;;;4332379;33;20159;-75
2021/07/30 08:59:22;;;;;;;9.30;4.70;;;;;;;;;;4344906;32;20174;-78
2021/07/30 09:01:56;;;;;;;12.07;4.18;;;;;;;;;;4349488;33;20159;-77
2021/07/30 09:04:28;;;;;;;12.23;4.60;;;;;;;;;;4344721;33;20147;-76
2021/07/30 09:07:02;;;;;;;7.15;4.07;;;;;;;;;;4355442;32;20144;-78
2021/07/30 09:09:32;;;;;;;9.50;4.15;;;;;;;;;;4357444;32;20177;-76
2021/07/30 09:11:58;;;;;;;10.68;4.15;;;;;;;;;;4358331;32;20131;-77
2021/07/30 09:14:31;;;;;;;9.77;5.03;;;;;;;;;;4344528;33;20170;-75
2021/07/30 09:16:57;;;;;;;11.65;4.00;;;;;;;;;;4346359;33;20237;-76
2021/07/30 09:19:23;;;;;;;9.07;4.15;;;;;;;;;;4357615;33;20181;-77
2021/07/30 09:22:00;;;;;;;12.35;5.25;;;;;;;;;;4346149;32;20159;-78
2021/07/30 09:24:42;;;;;;;9.60;4.30;;;;;;;;;;4353891;32;20147;-76
2021/07/30 09:27:11;;;;;;;9.73;4.50;;;;;;;;;;4344487;33;20526;-78
2021/07/30 09:29:39;;;;;;;8.52;4.15;;;;;;;;;;4344807;33;20213;-78
2021/07/30 09:32:09;;;;;;;8.50;4.62;;;;;;;;;;4353951;32;20233;-76
2021/07/30 09:34:53;;;;;;;15.27;3.92;;;;;;;;;;4331843;33;20186;-76
2021/07/30 09:37:22;;;;;;;6.32;3.65;;;;;;;;;;4344710;32;20174;-78
2021/07/30 09:39:50;;;;;;;10.27;4.20;;;;;;;;;;4344064;32;20472;-75
2021/07/30 09:42:21;;;;;;;8.90;4.05;;;;;;;;;;4344019;32;20167;-76
2021/07/30 09:44:49;;;;;;;7.07;4.12;;;;;;;;;;4344003;32;20221;-78
2021/07/30 09:47:20;;;;;;;7.40;3.42;;;;;;;;;;4343728;32;20183;-78
2021/07/30 09:49:52;;;;;;;10.05;3.78;;;;;;;;;;4347854;33;20150;-77
2021/07/30 09:52:27;;;;;;;6.80;4.25;;;;;;;;;;4344230;32;20152;-76
2021/07/30 09:54:57;;;;;;;7.60;3.60;;;;;;;;;;4344342;32;20211;-77
2021/07/30 09:57:23;;;;;;;8.57;4.40;;;;;;;;;;4344052;32;20155;-76
2021/07/30 09:59:49;;;;;;;7.50;3.85;;;;;;;;;;4358016;32;20127;-76
2021/07/30 10:02:19;;;;;;;9.18;4.50;;;;;;;;;;4344791;32;20249;-78
2021/07/30 10:04:51;;;;;;;7.55;4.57;;;;;;;;;;4357907;32;20124;-77
2021/07/30 10:07:20;;;;;;;6.75;4.18;;;;;;;;;;4344034;32;20177;-75
2021/07/30 10:10:14;;;;;;;7.80;4.30;;;;;;;;;;4343784;33;20206;-76
2021/07/30 10:12:52;;;;;;;8.38;4.40;;;;;;;;;;4357769;33;20193;-76
2021/07/30 10:15:21;;;;;;;10.73;4.75;;;;;;;;;;4356500;32;20602;-77
2021/07/30 10:17:51;;;;;;;7.80;4.18;;;;;;;;;;4347790;32;20230;-77
2021/07/30 10:20:17;;;;;;;9.48;4.40;;;;;;;;;;4357326;33;20208;-76
2021/07/30 10:22:50;;;;;;;6.07;4.18;;;;;;;;;;4331403;32;20159;-76
2021/07/30 10:25:21;;;;;;;10.27;4.30;;;;;;;;;;4340889;32;20178;-75
2021/07/30 10:27:47;;;;;;;11.07;4.62;;;;;;;;;;4347652;32;20279;-77
2021/07/30 10:30:13;;;;;;;10.05;5.05;;;;;;;;;;4358383;33;20498;-76
2021/07/30 10:32:49;;;;;;;7.05;4.47;;;;;;;;;;4346413;33;20200;-75
2021/07/30 10:35:43;;;;;;;8.93;4.45;;;;;;;;;;4346368;33;20579;-77
2021/07/30 10:38:28;;;;;;;8.23;4.72;;;;;;;;;;4369028;32;20249;-79
2021/07/30 10:41:09;;;;;;;11.07;4.37;;;;;;;;;;4354861;32;20235;-77
2021/07/30 10:43:50;;;;;;;6.62;4.28;;;;;;;;;;4343841;33;20680;-78
2021/07/30 10:46:21;;;;;;;8.10;4.25;;;;;;;;;;4344046;33;20159;-76
2021/07/30 10:48:51;;;;;;;9.85;4.15;;;;;;;;;;4344574;33;20270;-78
2021/07/30 10:51:30;;;;;;;7.43;4.10;;;;;;;;;;4345132;33;20186;-78
2021/07/30 10:53:59;;;;;;;11.02;4.18;;;;;;;;;;4345784;32;20159;-77
2021/07/30 10:56:30;;;;;;;8.02;4.00;;;;;;;;;;4345074;33;20220;-78
2021/07/30 10:59:01;;;;;;;8.40;3.90;;;;;;;;;;4356336;32;20568;-78
2021/07/30 11:01:29;;;;;;;5.85;3.80;;;;;;;;;;4355193;32;20619;-78
2021/07/30 11:04:02;;;;;;;7.45;4.00;;;;;;;;;;4346089;32;20198;-77
2021/07/30 11:06:28;;;;;;;6.15;3.90;;;;;;;;;;4345477;32;20241;-78
2021/07/30 11:09:06;;;;;;;9.50;3.92;;;;;;;;;;4351535;33;20163;-78
2021/07/30 11:11:44;;;;;;;6.10;3.80;;;;;;;;;;4346288;33;20159;-76
2021/07/30 11:14:31;;;;;;;;;;;;;;;;;;;;;
2021/07/30 11:16:58;;;;;;;9.02;3.97;;;;;;;;;;4359222;33;20186;-76
2021/07/30 11:19:25;;;;;;;11.20;4.05;;;;;;;;;;4344847;32;20166;-75
2021/07/30 11:21:50;;;;;;;4.75;3.53;;;;;;;;;;4345316;33;20197;-76
2021/07/30 11:24:16;;;;;;;8.02;4.53;;;;;;;;;;4345536;33;20182;-76
2021/07/30 11:26:41;;;;;;;7.40;3.72;;;;;;;;;;4345713;33;20147;-76
2021/07/30 11:29:17;;;;;;;4.30;3.60;;;;;;;;;;4354500;32;20190;-77
2021/07/30 11:31:53;;;;;;;7.65;3.90;;;;;;;;;;4345430;33;20158;-77
2021/07/30 11:34:19;;;;;;;6.07;3.67;;;;;;;;;;4345548;33;20511;-76
2021/07/30 11:36:49;;;;;;;5.28;3.83;;;;;;;;;;4347748;32;20170;-76
2021/07/30 11:39:14;;;;;;;8.18;3.92;;;;;;;;;;4341947;32;20209;-76
2021/07/30 11:41:45;;;;;;;7.30;3.62;;;;;;;;;;4344695;32;20182;-72
2021/07/30 11:44:11;;;;;;;7.12;4.12;;;;;;;;;;4345125;32;20506;-76
2021/07/30 11:46:36;;;;;;;7.35;3.65;;;;;;;;;;4346017;32;20206;-76
2021/07/30 11:49:02;;;;;;;9.18;8.30;;;;;;;;;;4344708;33;20559;-75
2021/07/30 11:51:28;;;;;;;4.90;3.40;;;;;;;;;;4359241;32;20191;-74
2021/07/30 11:53:54;;;;;;;5.50;3.35;;;;;;;;;;4359007;33;20541;-76
2021/07/30 11:56:19;;;;;;;7.82;3.60;;;;;;;;;;4345499;32;20189;-77
2021/07/30 11:59:01;;;;;;;5.75;3.45;;;;;;;;;;4345110;32;20275;-77
2021/07/30 12:01:30;;;;;;;6.40;3.78;;;;;;;;;;4363527;32;20239;-77
2021/07/30 12:04:08;;;;;;;6.35;3.20;;;;;;;;;;4378199;32;20500;-74
2021/07/30 12:06:39;;;;;;;7.68;3.37;;;;;;;;;;4394476;32;20194;-77
2021/07/30 12:09:04;;;;;;;5.57;3.42;;;;;;;;;;4394597;32;20247;-76
2021/07/30 12:11:30;;;;;;;8.50;3.87;;;;;;;;;;4394023;32;20159;-75
2021/07/30 12:13:58;;;;;;;5.93;3.78;;;;;;;;;;4394459;32;20487;-76
2021/07/30 12:16:23;;;;;;;10.07;4.22;;;;;;;;;;4394330;32;20205;-76
2021/07/30 12:18:49;;;;;;;5.25;3.65;;;;;;;;;;4344055;32;20534;-77
2021/07/30 12:21:14;;;;;;;7.97;3.83;;;;;;;;;;4382372;32;20839;-75
2021/07/30 12:23:40;;;;;;;9.80;4.30;;;;;;;;;;4349781;32;20182;-76
2021/07/30 12:26:26;;;;;;;6.90;3.97;;;;;;;;;;4361325;32;20197;-76
2021/07/30 12:28:54;;;;;;;7.65;4.10;;;;;;;;;;4332120;32;20221;-77
2021/07/30 12:31:22;;;;;;;8.15;4.40;;;;;;;;;;4353094;32;20167;-78
2021/07/30 12:33:48;;;;;;;9.05;4.40;;;;;;;;;;4365148;32;20159;-76
2021/07/30 12:36:16;;;;;;;12.37;5.25;;;;;;;;;;4358534;32;20173;-77
2021/07/30 12:38:49;;;;;;;9.25;5.47;;;;;;;;;;4344650;32;20227;-77
2021/07/30 12:41:15;;;;;;;8.65;5.80;;;;;;;;;;4358525;32;20159;-76
2021/07/30 12:43:46;;;;;;;9.50;5.10;;;;;;;;;;4344363;32;20220;-75
2021/07/30 12:46:31;;;;;;;11.50;5.30;;;;;;;;;;4345468;32;20175;-77
2021/07/30 12:48:56;;;;;;;7.12;4.80;;;;;;;;;;4358269;33;20191;-77
2021/07/30 12:51:25;;;;;;;7.47;4.75;;;;;;;;;;4344927;33;20167;-77
2021/07/30 12:53:57;;;;;;;9.20;5.40;;;;;;;;;;4358390;32;20139;-77
2021/07/30 12:56:24;;;;;;;8.27;5.30;;;;;;;;;;4358657;32;20139;-76
2021/07/30 12:58:53;;;;;;;8.50;5.90;;;;;;;;;;4344528;33;20182;-75
2021/07/30 13:01:21;;;;;;;10.68;7.35;;;;;;;;;;4356240;32;20147;-76
2021/07/30 13:03:46;;;;;;;13.60;7.35;;;;;;;;;;4330263;33;20502;-76
2021/07/30 13:06:13;;;;;;;13.65;9.25;;;;;;;;;;4343063;33;20139;-74
2021/07/30 13:08:42;;;;;;;14.23;8.43;;;;;;;;;;4351684;33;20449;-74
2021/07/30 13:11:10;;;;;;;15.05;9.57;;;;;;;;;;4344980;33;20232;-76
2021/07/30 13:13:38;;;;;;;15.07;10.05;;;;;;;;;;4358298;33;20162;-76
2021/07/30 13:16:04;;;;;;;16.70;10.35;;;;;;;;;;4344596;33;20162;-75
2021/07/30 13:24:40;;;;;;;23.52;14.73;;;;;;;;;;4372619;32;20267;-76
2021/07/30 13:30:43;;;;;;;19.20;13.05;;;;;;;;;;4328705;33;20699;-75
2021/07/30 13:33:35;;;;;;;21.42;11.73;;;;;;;;;;4300876;33;20271;-78
2021/07/30 13:36:22;;;;;;;14.00;10.98;;;;;;;;;;4298769;32;20160;-79
2021/07/30 13:38:50;;;;;;;12.88;9.02;;;;;;;;;;4333395;32;20296;-76
2021/07/30 13:41:16;;;;;;;9.43;7.35;;;;;;;;;;4362298;32;20179;-77
2021/07/30 13:43:52;;;;;;;10.60;7.72;;;;;;;;;;4352240;32;20204;-77
2021/07/30 13:46:17;;;;;;;10.73;8.98;;;;;;;;;;4357207;32;20269;-76
2021/07/30 13:48:43;;;;;;;10.73;8.32;;;;;;;;;;4356533;33;20178;-77
2021/07/30 13:51:08;;;;;;;10.88;8.70;;;;;;;;;;4404226;32;20157;-77
2021/07/30 13:53:35;;;;;;;9.05;6.68;;;;;;;;;;4343560;32;20162;-74
2021/07/30 13:56:02;;;;;;;10.00;6.70;;;;;;;;;;4344662;32;20462;-77
2021/07/30 13:58:27;;;;;;;7.68;6.22;;;;;;;;;;4343254;32;20190;-72
2021/07/30 14:00:53;;;;;;;6.60;5.00;;;;;;;;;;4343876;32;20479;-77
2021/07/30 14:03:19;;;;;;;7.25;4.53;;;;;;;;;;4359416;33;20127;-77
2021/07/30 14:05:54;;;;;;;5.10;4.57;;;;;;;;;;4360860;32;20453;-79
2021/07/30 14:08:29;;;;;;;7.85;4.90;;;;;;;;;;4346634;32;20177;-76
2021/07/30 14:10:54;;;;;;;5.80;4.70;;;;;;;;;;4361211;32;20157;-79
2021/07/30 14:13:22;;;;;;;6.20;4.60;;;;;;;;;;4360034;32;20474;-77
2021/07/30 14:15:49;;;;;;;8.02;4.53;;;;;;;;;;4346703;33;20173;-78
2021/07/30 14:18:14;;;;;;;8.18;5.30;;;;;;;;;;4346423;32;20155;-75
2021/07/30 14:20:42;;;;;;;6.32;4.32;;;;;;;;;;4360653;32;20177;-78
2021/07/30 14:23:08;;;;;;;6.68;4.70;;;;;;;;;;4346107;33;20163;-77
2021/07/30 14:25:33;;;;;;;9.00;5.07;;;;;;;;;;4346519;32;20657;-78
2021/07/30 14:27:58;;;;;;;8.10;4.95;;;;;;;;;;4343470;32;20161;-78
2021/07/30 14:30:23;;;;;;;5.37;4.75;;;;;;;;;;4343777;33;20155;-76
2021/07/30 14:32:49;;;;;;;9.65;5.65;;;;;;;;;;4345030;33;20227;-75
2021/07/30 14:35:15;;;;;;;7.72;4.72;;;;;;;;;;4343706;33;20208;-79
2021/07/30 14:37:47;;;;;;;9.75;5.40;;;;;;;;;;4343367;33;20181;-75
2021/07/30 14:40:12;;;;;;;10.45;4.75;;;;;;;;;;4346194;32;20658;-79
2021/07/30 14:42:47;;;;;;;12.50;5.45;;;;;;;;;;4359372;32;20151;-76
2021/07/30 14:45:15;;;;;;;5.22;4.25;;;;;;;;;;4360755;33;20123;-77
2021/07/30 14:47:41;;;;;;;5.55;2.50;;;;;;;;;;4359573;33;20451;-78
2021/07/30 14:50:09;;;;;;;1.55;1.25;;;;;;;;;;4359723;33;20220;-77
2021/07/30 14:52:35;;;;;;;1.50;1.10;;;;;;;;;;4346493;32;20224;-76
2021/07/30 14:55:00;;;;;;;2.05;1.20;;;;;;;;;;4345790;32;20178;-77
2021/07/30 14:57:27;;;;;;;1.98;0.80;;;;;;;;;;4359584;33;20225;-78